Tyndall Air Force Base
KPAM : now visible

Airfield :











YOU CAN JOIN US ON...

 
LOGIN :

Register | Disclaimer

   EN    FR    IT 

 









Legend :    VFR   Marginal VFR   IFR   Intensive IFR   Very Intensive IFR
Visi :
Ceiling :
>= 8 km
>= 3000ft
5 to 8 km
1000 to 3000 ft
1500m to 5 km
500 to 1000 ft
800 to 1500m
200 to 500 ft
< 800m
< 200 ft
Symbols :   Thunderstorms  Fog  Heavy snow  Heavy precipitations  Wind > 20 kt






- Airport Elevation : 17 ft


KPAM - Tyndall Air Force Base

CURRENT METAR :
  • 120321Z AUTO 04009G16KT 10SM FEW027 SCT038 SCT047 OVC060 10/03 A3038 RMK AO2 SLPNO $

EXPIRED METARs :
  • 120311Z AUTO 05011G16KT 10SM SCT028 OVC060 10/03 A3038 RMK AO2 SLPNO $
  • 120256Z AUTO 04008KT 10SM FEW021 BKN027 OVC034 10/03 A3039 RMK AO2 RAB07E26RAB29E46 SLPNO P0000 60000 T00950030 52014 $
  • 120246Z AUTO 05010KT 10SM SCT022 BKN027 OVC034 10/03 A3039 RMK AO2 RAB07E26RAB29E46 CIG 027V034 BKN V SCT SLPNO $
  • 120239Z AUTO 05011KT 10SM -RA SCT022 BKN034 BKN045 OVC050 10/03 A3039 RMK AO2 RAB07E26RAB29 SLPNO $
  • 120222Z AUTO 04009KT 10SM -RA FEW012 FEW019 SCT024 SCT031 OVC050 10/03 A3038 RMK AO2 RAB07 SLPNO $
  • 120207Z AUTO 05010G16KT 10SM -RA FEW013 SCT019 OVC049 10/02 A3038 RMK AO2 RAB07 SLPNO $
  • 120156Z AUTO 05009G17KT 10SM FEW020 OVC049 10/02 A3037 RMK AO2 RAB36E48 SLPNO P0000 T01030022 $
  • 120136Z AUTO 04012G20KT 10SM -RA SCT022 BKN050 OVC060 10/02 A3036 RMK AO2 RAB36 SLPNO $
  • 120056Z AUTO 03011G17KT 10SM FEW043 OVC060 10/03 A3036 RMK AO2 SLPNO T01010027 $

TAF TAF KPAM
Valid from the 11 at 19:00 until the 13 at 01:00 UTC


111900Z 1119/1301 03015G20KT 9000 SHRA BKN055 OVC070 QNH3031INS
BECMG 1201/1202 04012G20KT 9999 NSW BKN025 QNH3030INS
BECMG 1209/1210 07015G25KT 9000 -SHRA BKN020 QNH3023INS TX10/1120Z TN09/1211Z LAST NO AMDS AFT 1123 NEXT 1211



MET'MAP, your aeronautical weather chart ! - Copyright ORBIFLY December 2007 - Disclaimer

ORBIFLY MET'MAP TEAM :

Programming & Development : Alexandra Zaïnal
Concept & original design : Baudouin d'Aumeries
Assistance for programming : Marc-Olivier Méhu
Technical & hardware support : Manuel Goepfert

Contact : metmap@orbifly.com




SOURCES & CREDITS :

   NOAA       Earth
Advisory